sensor_id;sensor_type;location;lat;lon;timestamp;P1;durP1;ratioP1;P2;durP2;ratioP2
78169;SDS011;67412;49.892;14.490;2023-04-30T00:02:06;15.10;;;6.57;;
78169;SDS011;67412;49.892;14.490;2023-04-30T00:04:32;13.75;;;6.15;;
78169;SDS011;67412;49.892;14.490;2023-04-30T00:06:57;15.50;;;6.05;;
78169;SDS011;67412;49.892;14.490;2023-04-30T00:09:23;15.93;;;6.93;;
78169;SDS011;67412;49.892;14.490;2023-04-30T00:11:48;13.25;;;6.20;;
78169;SDS011;67412;49.892;14.490;2023-04-30T00:14:14;14.32;;;6.15;;
78169;SDS011;67412;49.892;14.490;2023-04-30T00:16:39;15.60;;;6.88;;
78169;SDS011;67412;49.892;14.490;2023-04-30T00:19:05;13.63;;;5.72;;
78169;SDS011;67412;49.892;14.490;2023-04-30T00:21:30;12.27;;;5.65;;
78169;SDS011;67412;49.892;14.490;2023-04-30T00:23:56;14.88;;;6.13;;
78169;SDS011;67412;49.892;14.490;2023-04-30T00:26:21;13.55;;;6.22;;
78169;SDS011;67412;49.892;14.490;2023-04-30T00:28:46;12.90;;;6.05;;
78169;SDS011;67412;49.892;14.490;2023-04-30T00:31:11;13.38;;;6.50;;
78169;SDS011;67412;49.892;14.490;2023-04-30T00:33:37;12.57;;;6.15;;
78169;SDS011;67412;49.892;14.490;2023-04-30T00:36:02;12.23;;;6.30;;
78169;SDS011;67412;49.892;14.490;2023-04-30T00:38:28;14.18;;;6.03;;
78169;SDS011;67412;49.892;14.490;2023-04-30T00:40:53;12.52;;;6.05;;
78169;SDS011;67412;49.892;14.490;2023-04-30T00:43:18;16.23;;;6.57;;
78169;SDS011;67412;49.892;14.490;2023-04-30T00:45:44;13.23;;;5.85;;
78169;SDS011;67412;49.892;14.490;2023-04-30T00:48:09;16.02;;;6.05;;
78169;SDS011;67412;49.892;14.490;2023-04-30T00:50:35;13.98;;;6.53;;
78169;SDS011;67412;49.892;14.490;2023-04-30T00:53:00;14.13;;;6.35;;
78169;SDS011;67412;49.892;14.490;2023-04-30T00:55:26;14.00;;;6.32;;
78169;SDS011;67412;49.892;14.490;2023-04-30T00:57:52;13.68;;;6.57;;
78169;SDS011;67412;49.892;14.490;2023-04-30T01:00:18;14.07;;;6.53;;
78169;SDS011;67412;49.892;14.490;2023-04-30T01:02:44;16.48;;;7.30;;
78169;SDS011;67412;49.892;14.490;2023-04-30T01:05:10;14.18;;;6.13;;
78169;SDS011;67412;49.892;14.490;2023-04-30T01:07:36;12.23;;;5.78;;
78169;SDS011;67412;49.892;14.490;2023-04-30T01:10:05;14.05;;;6.82;;
78169;SDS011;67412;49.892;14.490;2023-04-30T01:15:18;14.65;;;5.90;;
78169;SDS011;67412;49.892;14.490;2023-04-30T01:17:53;11.85;;;5.68;;
78169;SDS011;67412;49.892;14.490;2023-04-30T01:20:23;12.90;;;5.95;;
78169;SDS011;67412;49.892;14.490;2023-04-30T01:28:26;15.48;;;6.47;;
78169;SDS011;67412;49.892;14.490;2023-04-30T01:30:52;11.98;;;6.40;;
78169;SDS011;67412;49.892;14.490;2023-04-30T01:33:18;14.63;;;5.65;;
78169;SDS011;67412;49.892;14.490;2023-04-30T01:35:56;14.70;;;6.40;;
78169;SDS011;67412;49.892;14.490;2023-04-30T01:46:29;14.05;;;6.38;;
78169;SDS011;67412;49.892;14.490;2023-04-30T01:54:38;15.65;;;6.28;;
78169;SDS011;67412;49.892;14.490;2023-04-30T01:57:06;15.85;;;7.07;;
78169;SDS011;67412;49.892;14.490;2023-04-30T01:59:37;20.50;;;7.05;;
78169;SDS011;67412;49.892;14.490;2023-04-30T02:02:04;13.95;;;6.15;;
78169;SDS011;67412;49.892;14.490;2023-04-30T02:04:30;15.60;;;6.70;;
78169;SDS011;67412;49.892;14.490;2023-04-30T02:06:55;15.30;;;7.30;;
78169;SDS011;67412;49.892;14.490;2023-04-30T02:09:22;15.52;;;7.60;;
78169;SDS011;67412;49.892;14.490;2023-04-30T02:11:48;18.65;;;7.15;;
78169;SDS011;67412;49.892;14.490;2023-04-30T02:14:13;14.00;;;6.53;;
78169;SDS011;67412;49.892;14.490;2023-04-30T02:16:38;14.15;;;6.40;;
78169;SDS011;67412;49.892;14.490;2023-04-30T02:19:04;13.95;;;6.57;;
78169;SDS011;67412;49.892;14.490;2023-04-30T02:21:29;15.38;;;7.15;;
78169;SDS011;67412;49.892;14.490;2023-04-30T02:23:55;15.40;;;7.18;;
78169;SDS011;67412;49.892;14.490;2023-04-30T02:26:21;15.50;;;6.80;;
78169;SDS011;67412;49.892;14.490;2023-04-30T02:28:46;16.02;;;8.05;;
78169;SDS011;67412;49.892;14.490;2023-04-30T02:31:11;14.23;;;6.70;;
78169;SDS011;67412;49.892;14.490;2023-04-30T02:33:37;14.93;;;6.70;;
78169;SDS011;67412;49.892;14.490;2023-04-30T02:36:02;18.17;;;7.20;;
78169;SDS011;67412;49.892;14.490;2023-04-30T02:38:28;16.35;;;7.93;;
78169;SDS011;67412;49.892;14.490;2023-04-30T02:40:53;17.50;;;8.20;;
78169;SDS011;67412;49.892;14.490;2023-04-30T02:43:18;17.20;;;7.22;;
78169;SDS011;67412;49.892;14.490;2023-04-30T02:45:44;17.85;;;8.05;;
78169;SDS011;67412;49.892;14.490;2023-04-30T02:48:09;16.70;;;7.88;;
78169;SDS011;67412;49.892;14.490;2023-04-30T02:50:34;16.92;;;8.50;;
78169;SDS011;67412;49.892;14.490;2023-04-30T02:53:00;16.77;;;7.15;;
78169;SDS011;67412;49.892;14.490;2023-04-30T02:55:25;20.73;;;9.30;;
78169;SDS011;67412;49.892;14.490;2023-04-30T02:57:51;16.50;;;7.88;;
78169;SDS011;67412;49.892;14.490;2023-04-30T03:00:16;15.15;;;7.25;;
78169;SDS011;67412;49.892;14.490;2023-04-30T03:02:42;23.15;;;8.90;;
78169;SDS011;67412;49.892;14.490;2023-04-30T03:05:07;16.55;;;7.90;;
78169;SDS011;67412;49.892;14.490;2023-04-30T03:07:33;16.27;;;7.53;;
78169;SDS011;67412;49.892;14.490;2023-04-30T03:09:58;16.35;;;8.23;;
78169;SDS011;67412;49.892;14.490;2023-04-30T03:12:23;17.17;;;7.57;;
78169;SDS011;67412;49.892;14.490;2023-04-30T03:14:49;18.20;;;9.02;;
78169;SDS011;67412;49.892;14.490;2023-04-30T03:17:14;17.52;;;8.45;;
78169;SDS011;67412;49.892;14.490;2023-04-30T03:19:40;16.17;;;8.40;;
78169;SDS011;67412;49.892;14.490;2023-04-30T03:22:06;19.58;;;9.00;;
78169;SDS011;67412;49.892;14.490;2023-04-30T03:24:31;16.70;;;8.40;;
78169;SDS011;67412;49.892;14.490;2023-04-30T03:26:56;20.50;;;9.35;;
78169;SDS011;67412;49.892;14.490;2023-04-30T03:29:22;18.50;;;8.07;;
78169;SDS011;67412;49.892;14.490;2023-04-30T03:31:47;16.70;;;7.93;;
78169;SDS011;67412;49.892;14.490;2023-04-30T03:34:12;18.90;;;8.82;;
78169;SDS011;67412;49.892;14.490;2023-04-30T03:36:38;16.70;;;8.27;;
78169;SDS011;67412;49.892;14.490;2023-04-30T03:39:03;17.83;;;8.38;;
78169;SDS011;67412;49.892;14.490;2023-04-30T03:41:29;17.20;;;8.10;;
78169;SDS011;67412;49.892;14.490;2023-04-30T03:43:54;18.75;;;9.07;;
78169;SDS011;67412;49.892;14.490;2023-04-30T03:46:20;15.80;;;7.72;;
78169;SDS011;67412;49.892;14.490;2023-04-30T03:48:45;19.02;;;8.18;;
78169;SDS011;67412;49.892;14.490;2023-04-30T03:51:10;16.23;;;7.80;;
78169;SDS011;67412;49.892;14.490;2023-04-30T03:53:36;19.48;;;9.00;;
78169;SDS011;67412;49.892;14.490;2023-04-30T03:56:01;17.23;;;8.20;;
78169;SDS011;67412;49.892;14.490;2023-04-30T03:58:28;18.00;;;8.25;;
78169;SDS011;67412;49.892;14.490;2023-04-30T04:00:53;16.45;;;8.20;;
78169;SDS011;67412;49.892;14.490;2023-04-30T04:03:19;18.42;;;8.98;;
78169;SDS011;67412;49.892;14.490;2023-04-30T04:05:44;15.10;;;8.25;;
78169;SDS011;67412;49.892;14.490;2023-04-30T04:08:10;16.20;;;7.60;;
78169;SDS011;67412;49.892;14.490;2023-04-30T04:10:36;18.85;;;8.13;;
78169;SDS011;67412;49.892;14.490;2023-04-30T04:13:03;21.65;;;8.02;;
78169;SDS011;67412;49.892;14.490;2023-04-30T04:15:29;15.48;;;7.38;;
78169;SDS011;67412;49.892;14.490;2023-04-30T04:17:54;17.33;;;8.02;;
78169;SDS011;67412;49.892;14.490;2023-04-30T04:20:19;17.90;;;8.82;;
78169;SDS011;67412;49.892;14.490;2023-04-30T04:22:45;20.33;;;8.30;;
78169;SDS011;67412;49.892;14.490;2023-04-30T04:25:10;15.93;;;8.15;;
78169;SDS011;67412;49.892;14.490;2023-04-30T04:27:35;17.25;;;8.25;;
78169;SDS011;67412;49.892;14.490;2023-04-30T04:30:01;15.25;;;8.07;;
78169;SDS011;67412;49.892;14.490;2023-04-30T04:32:27;17.40;;;7.85;;
78169;SDS011;67412;49.892;14.490;2023-04-30T04:34:54;19.08;;;8.18;;
78169;SDS011;67412;49.892;14.490;2023-04-30T04:37:21;19.85;;;8.35;;
78169;SDS011;67412;49.892;14.490;2023-04-30T04:39:46;19.52;;;8.35;;
78169;SDS011;67412;49.892;14.490;2023-04-30T04:42:12;15.77;;;7.65;;
78169;SDS011;67412;49.892;14.490;2023-04-30T04:44:41;15.02;;;7.07;;
78169;SDS011;67412;49.892;14.490;2023-04-30T04:47:07;17.52;;;7.80;;
78169;SDS011;67412;49.892;14.490;2023-04-30T04:49:32;16.33;;;7.65;;
78169;SDS011;67412;49.892;14.490;2023-04-30T04:51:57;15.65;;;7.70;;
78169;SDS011;67412;49.892;14.490;2023-04-30T04:54:23;15.90;;;7.75;;
78169;SDS011;67412;49.892;14.490;2023-04-30T04:56:49;15.70;;;7.25;;
78169;SDS011;67412;49.892;14.490;2023-04-30T04:59:15;16.95;;;7.13;;
78169;SDS011;67412;49.892;14.490;2023-04-30T05:01:42;18.60;;;7.55;;
78169;SDS011;67412;49.892;14.490;2023-04-30T05:04:08;15.32;;;6.95;;
78169;SDS011;67412;49.892;14.490;2023-04-30T05:06:33;15.23;;;6.82;;
78169;SDS011;67412;49.892;14.490;2023-04-30T05:08:59;18.80;;;7.22;;
78169;SDS011;67412;49.892;14.490;2023-04-30T05:11:24;17.48;;;7.68;;
78169;SDS011;67412;49.892;14.490;2023-04-30T05:13:49;16.55;;;6.72;;
78169;SDS011;67412;49.892;14.490;2023-04-30T05:16:15;14.50;;;6.78;;
78169;SDS011;67412;49.892;14.490;2023-04-30T05:18:40;14.93;;;6.25;;
78169;SDS011;67412;49.892;14.490;2023-04-30T05:21:06;18.77;;;7.18;;
78169;SDS011;67412;49.892;14.490;2023-04-30T05:23:31;16.88;;;7.18;;
78169;SDS011;67412;49.892;14.490;2023-04-30T05:25:56;15.50;;;6.57;;
78169;SDS011;67412;49.892;14.490;2023-04-30T05:28:21;16.85;;;7.22;;
78169;SDS011;67412;49.892;14.490;2023-04-30T05:30:47;14.85;;;6.88;;
78169;SDS011;67412;49.892;14.490;2023-04-30T05:33:12;15.48;;;5.97;;
78169;SDS011;67412;49.892;14.490;2023-04-30T05:35:38;14.50;;;6.47;;
78169;SDS011;67412;49.892;14.490;2023-04-30T05:38:03;15.48;;;7.05;;
78169;SDS011;67412;49.892;14.490;2023-04-30T05:40:28;13.30;;;5.88;;
78169;SDS011;67412;49.892;14.490;2023-04-30T05:42:54;13.73;;;6.38;;
78169;SDS011;67412;49.892;14.490;2023-04-30T05:45:20;11.20;;;5.22;;
78169;SDS011;67412;49.892;14.490;2023-04-30T05:47:45;8.98;;;4.45;;
78169;SDS011;67412;49.892;14.490;2023-04-30T05:50:11;14.23;;;6.00;;
78169;SDS011;67412;49.892;14.490;2023-04-30T05:52:36;11.15;;;4.78;;
78169;SDS011;67412;49.892;14.490;2023-04-30T05:55:02;11.10;;;5.30;;
78169;SDS011;67412;49.892;14.490;2023-04-30T05:57:27;12.80;;;5.50;;
78169;SDS011;67412;49.892;14.490;2023-04-30T05:59:53;10.50;;;4.82;;
78169;SDS011;67412;49.892;14.490;2023-04-30T06:02:18;10.93;;;5.30;;
78169;SDS011;67412;49.892;14.490;2023-04-30T06:04:44;11.80;;;5.45;;
78169;SDS011;67412;49.892;14.490;2023-04-30T06:07:09;12.25;;;5.25;;
78169;SDS011;67412;49.892;14.490;2023-04-30T06:09:34;12.00;;;5.00;;
78169;SDS011;67412;49.892;14.490;2023-04-30T06:12:00;10.95;;;4.65;;
78169;SDS011;67412;49.892;14.490;2023-04-30T06:14:26;13.50;;;5.07;;
78169;SDS011;67412;49.892;14.490;2023-04-30T06:16:51;12.32;;;5.45;;
78169;SDS011;67412;49.892;14.490;2023-04-30T06:19:17;10.02;;;4.50;;
78169;SDS011;67412;49.892;14.490;2023-04-30T06:21:43;10.18;;;4.30;;
78169;SDS011;67412;49.892;14.490;2023-04-30T06:24:08;11.77;;;5.10;;
78169;SDS011;67412;49.892;14.490;2023-04-30T06:26:34;12.00;;;5.15;;
78169;SDS011;67412;49.892;14.490;2023-04-30T06:29:00;13.88;;;4.78;;
78169;SDS011;67412;49.892;14.490;2023-04-30T06:31:25;13.75;;;5.85;;
78169;SDS011;67412;49.892;14.490;2023-04-30T06:33:51;9.60;;;4.30;;
78169;SDS011;67412;49.892;14.490;2023-04-30T06:36:16;11.02;;;5.53;;
78169;SDS011;67412;49.892;14.490;2023-04-30T06:38:42;10.70;;;4.60;;
78169;SDS011;67412;49.892;14.490;2023-04-30T06:41:08;10.95;;;4.72;;
78169;SDS011;67412;49.892;14.490;2023-04-30T06:43:33;10.18;;;4.63;;
78169;SDS011;67412;49.892;14.490;2023-04-30T06:45:59;10.43;;;5.10;;
78169;SDS011;67412;49.892;14.490;2023-04-30T06:48:24;11.63;;;5.80;;
78169;SDS011;67412;49.892;14.490;2023-04-30T06:50:50;12.45;;;5.50;;
78169;SDS011;67412;49.892;14.490;2023-04-30T06:53:15;11.57;;;4.30;;
78169;SDS011;67412;49.892;14.490;2023-04-30T06:55:41;14.75;;;5.45;;
78169;SDS011;67412;49.892;14.490;2023-04-30T06:58:06;10.95;;;5.35;;
78169;SDS011;67412;49.892;14.490;2023-04-30T07:00:32;11.02;;;5.45;;
78169;SDS011;67412;49.892;14.490;2023-04-30T07:02:58;13.43;;;5.40;;
78169;SDS011;67412;49.892;14.490;2023-04-30T07:05:28;12.52;;;5.68;;
78169;SDS011;67412;49.892;14.490;2023-04-30T07:07:57;13.13;;;5.53;;
78169;SDS011;67412;49.892;14.490;2023-04-30T07:10:25;13.15;;;5.75;;
78169;SDS011;67412;49.892;14.490;2023-04-30T07:12:51;12.40;;;5.68;;
78169;SDS011;67412;49.892;14.490;2023-04-30T07:15:16;12.63;;;6.03;;
78169;SDS011;67412;49.892;14.490;2023-04-30T07:17:41;12.45;;;5.65;;
78169;SDS011;67412;49.892;14.490;2023-04-30T07:20:07;11.48;;;5.28;;
78169;SDS011;67412;49.892;14.490;2023-04-30T07:22:33;15.73;;;6.85;;
78169;SDS011;67412;49.892;14.490;2023-04-30T07:24:59;15.65;;;6.18;;
78169;SDS011;67412;49.892;14.490;2023-04-30T07:27:25;13.80;;;5.80;;
78169;SDS011;67412;49.892;14.490;2023-04-30T07:29:51;16.05;;;5.80;;
78169;SDS011;67412;49.892;14.490;2023-04-30T07:32:16;13.18;;;5.53;;
78169;SDS011;67412;49.892;14.490;2023-04-30T07:34:41;12.90;;;6.25;;
78169;SDS011;67412;49.892;14.490;2023-04-30T07:37:07;13.93;;;6.40;;
78169;SDS011;67412;49.892;14.490;2023-04-30T07:39:33;11.80;;;5.68;;
78169;SDS011;67412;49.892;14.490;2023-04-30T07:42:00;10.68;;;5.43;;
78169;SDS011;67412;49.892;14.490;2023-04-30T07:44:26;14.88;;;5.53;;
78169;SDS011;67412;49.892;14.490;2023-04-30T07:46:52;11.48;;;5.35;;
78169;SDS011;67412;49.892;14.490;2023-04-30T07:49:17;11.13;;;5.95;;
78169;SDS011;67412;49.892;14.490;2023-04-30T07:51:43;13.73;;;6.85;;
78169;SDS011;67412;49.892;14.490;2023-04-30T07:54:08;15.40;;;6.30;;
78169;SDS011;67412;49.892;14.490;2023-04-30T07:56:33;12.95;;;5.97;;
78169;SDS011;67412;49.892;14.490;2023-04-30T07:59:00;12.63;;;5.32;;
78169;SDS011;67412;49.892;14.490;2023-04-30T08:01:25;12.43;;;5.85;;
78169;SDS011;67412;49.892;14.490;2023-04-30T08:03:50;11.40;;;5.15;;
78169;SDS011;67412;49.892;14.490;2023-04-30T08:06:16;12.95;;;6.13;;
78169;SDS011;67412;49.892;14.490;2023-04-30T08:08:41;12.50;;;6.03;;
78169;SDS011;67412;49.892;14.490;2023-04-30T08:11:06;12.85;;;5.97;;
78169;SDS011;67412;49.892;14.490;2023-04-30T08:13:32;14.82;;;5.97;;
78169;SDS011;67412;49.892;14.490;2023-04-30T08:15:57;11.95;;;5.30;;
78169;SDS011;67412;49.892;14.490;2023-04-30T08:18:22;11.88;;;4.90;;
78169;SDS011;67412;49.892;14.490;2023-04-30T08:20:47;13.48;;;6.47;;
78169;SDS011;67412;49.892;14.490;2023-04-30T08:23:13;12.10;;;5.30;;
78169;SDS011;67412;49.892;14.490;2023-04-30T08:25:38;13.18;;;5.97;;
78169;SDS011;67412;49.892;14.490;2023-04-30T08:28:05;12.13;;;5.82;;
78169;SDS011;67412;49.892;14.490;2023-04-30T08:30:30;9.57;;;4.75;;
78169;SDS011;67412;49.892;14.490;2023-04-30T08:32:56;10.15;;;5.35;;
78169;SDS011;67412;49.892;14.490;2023-04-30T08:35:21;10.80;;;5.43;;
78169;SDS011;67412;49.892;14.490;2023-04-30T08:37:47;12.85;;;5.88;;
78169;SDS011;67412;49.892;14.490;2023-04-30T08:40:12;13.70;;;6.75;;
78169;SDS011;67412;49.892;14.490;2023-04-30T08:42:40;11.25;;;5.28;;
78169;SDS011;67412;49.892;14.490;2023-04-30T08:45:10;11.98;;;5.50;;
78169;SDS011;67412;49.892;14.490;2023-04-30T08:47:37;10.45;;;4.97;;
78169;SDS011;67412;49.892;14.490;2023-04-30T08:50:03;10.88;;;4.93;;
78169;SDS011;67412;49.892;14.490;2023-04-30T08:52:29;11.00;;;5.45;;
78169;SDS011;67412;49.892;14.490;2023-04-30T08:54:58;9.95;;;4.35;;
78169;SDS011;67412;49.892;14.490;2023-04-30T08:57:25;10.95;;;4.60;;
78169;SDS011;67412;49.892;14.490;2023-04-30T08:59:52;10.90;;;4.60;;
78169;SDS011;67412;49.892;14.490;2023-04-30T09:02:18;7.97;;;4.18;;
78169;SDS011;67412;49.892;14.490;2023-04-30T09:04:43;12.50;;;5.50;;
78169;SDS011;67412;49.892;14.490;2023-04-30T09:07:12;9.25;;;4.07;;
78169;SDS011;67412;49.892;14.490;2023-04-30T09:09:38;9.35;;;4.72;;
78169;SDS011;67412;49.892;14.490;2023-04-30T09:14:37;9.45;;;4.40;;
78169;SDS011;67412;49.892;14.490;2023-04-30T09:17:04;9.48;;;4.80;;
78169;SDS011;67412;49.892;14.490;2023-04-30T09:19:30;8.60;;;4.00;;
78169;SDS011;67412;49.892;14.490;2023-04-30T09:21:56;8.05;;;3.78;;
78169;SDS011;67412;49.892;14.490;2023-04-30T09:24:21;8.95;;;4.10;;
78169;SDS011;67412;49.892;14.490;2023-04-30T09:26:47;8.88;;;3.80;;
78169;SDS011;67412;49.892;14.490;2023-04-30T09:29:13;9.70;;;4.40;;
78169;SDS011;67412;49.892;14.490;2023-04-30T09:31:41;7.72;;;3.90;;
78169;SDS011;67412;49.892;14.490;2023-04-30T09:34:08;9.85;;;3.45;;
78169;SDS011;67412;49.892;14.490;2023-04-30T09:36:33;9.50;;;4.25;;
78169;SDS011;67412;49.892;14.490;2023-04-30T09:39:08;9.32;;;3.80;;
78169;SDS011;67412;49.892;14.490;2023-04-30T09:41:42;8.70;;;3.72;;
78169;SDS011;67412;49.892;14.490;2023-04-30T09:44:08;6.70;;;3.22;;
78169;SDS011;67412;49.892;14.490;2023-04-30T09:46:51;6.72;;;3.15;;
78169;SDS011;67412;49.892;14.490;2023-04-30T09:49:16;7.30;;;3.50;;
78169;SDS011;67412;49.892;14.490;2023-04-30T09:51:56;8.80;;;3.45;;
78169;SDS011;67412;49.892;14.490;2023-04-30T09:54:24;6.80;;;3.17;;
78169;SDS011;67412;49.892;14.490;2023-04-30T09:56:53;8.88;;;3.92;;
78169;SDS011;67412;49.892;14.490;2023-04-30T09:59:22;8.65;;;3.90;;
78169;SDS011;67412;49.892;14.490;2023-04-30T10:01:52;8.82;;;3.78;;
78169;SDS011;67412;49.892;14.490;2023-04-30T10:04:18;7.57;;;3.80;;
78169;SDS011;67412;49.892;14.490;2023-04-30T10:06:45;8.20;;;3.58;;
78169;SDS011;67412;49.892;14.490;2023-04-30T10:09:10;9.23;;;3.63;;
78169;SDS011;67412;49.892;14.490;2023-04-30T10:11:39;7.32;;;3.28;;
78169;SDS011;67412;49.892;14.490;2023-04-30T10:14:11;10.18;;;3.88;;
78169;SDS011;67412;49.892;14.490;2023-04-30T10:19:12;9.98;;;3.63;;
78169;SDS011;67412;49.892;14.490;2023-04-30T10:21:44;7.30;;;3.75;;
78169;SDS011;67412;49.892;14.490;2023-04-30T10:24:12;8.43;;;3.55;;
78169;SDS011;67412;49.892;14.490;2023-04-30T10:26:39;7.57;;;3.60;;
78169;SDS011;67412;49.892;14.490;2023-04-30T10:29:05;10.02;;;4.28;;
78169;SDS011;67412;49.892;14.490;2023-04-30T10:31:31;8.43;;;3.47;;
78169;SDS011;67412;49.892;14.490;2023-04-30T10:36:42;7.28;;;2.85;;
78169;SDS011;67412;49.892;14.490;2023-04-30T10:39:13;16.08;;;8.15;;
78169;SDS011;67412;49.892;14.490;2023-04-30T10:41:45;7.53;;;3.50;;
78169;SDS011;67412;49.892;14.490;2023-04-30T10:44:12;8.30;;;3.28;;
78169;SDS011;67412;49.892;14.490;2023-04-30T10:46:38;7.15;;;2.67;;
78169;SDS011;67412;49.892;14.490;2023-04-30T10:49:03;6.55;;;3.05;;
78169;SDS011;67412;49.892;14.490;2023-04-30T10:51:45;6.00;;;2.67;;
78169;SDS011;67412;49.892;14.490;2023-04-30T10:57:07;8.30;;;3.03;;
78169;SDS011;67412;49.892;14.490;2023-04-30T10:59:35;7.25;;;3.13;;
78169;SDS011;67412;49.892;14.490;2023-04-30T11:02:01;9.02;;;3.58;;
78169;SDS011;67412;49.892;14.490;2023-04-30T11:04:27;8.15;;;3.63;;
78169;SDS011;67412;49.892;14.490;2023-04-30T11:07:08;9.32;;;3.78;;
78169;SDS011;67412;49.892;14.490;2023-04-30T11:09:41;7.13;;;3.38;;
78169;SDS011;67412;49.892;14.490;2023-04-30T11:12:20;7.65;;;3.53;;
78169;SDS011;67412;49.892;14.490;2023-04-30T11:14:52;11.25;;;4.65;;
78169;SDS011;67412;49.892;14.490;2023-04-30T11:17:21;8.45;;;3.13;;
78169;SDS011;67412;49.892;14.490;2023-04-30T11:19:48;7.78;;;3.30;;
78169;SDS011;67412;49.892;14.490;2023-04-30T11:22:15;8.43;;;3.58;;
78169;SDS011;67412;49.892;14.490;2023-04-30T11:27:14;7.90;;;3.03;;
78169;SDS011;67412;49.892;14.490;2023-04-30T11:29:45;8.52;;;4.10;;
78169;SDS011;67412;49.892;14.490;2023-04-30T11:32:10;6.93;;;3.53;;
78169;SDS011;67412;49.892;14.490;2023-04-30T11:34:36;6.60;;;2.88;;
78169;SDS011;67412;49.892;14.490;2023-04-30T11:37:02;7.28;;;3.50;;
78169;SDS011;67412;49.892;14.490;2023-04-30T11:39:28;9.15;;;3.33;;
78169;SDS011;67412;49.892;14.490;2023-04-30T11:41:56;7.47;;;3.33;;
78169;SDS011;67412;49.892;14.490;2023-04-30T11:44:27;8.23;;;3.60;;
78169;SDS011;67412;49.892;14.490;2023-04-30T11:46:53;8.55;;;3.65;;
78169;SDS011;67412;49.892;14.490;2023-04-30T11:49:22;7.10;;;3.08;;
78169;SDS011;67412;49.892;14.490;2023-04-30T11:51:48;10.35;;;3.28;;
78169;SDS011;67412;49.892;14.490;2023-04-30T11:54:14;7.90;;;3.15;;
78169;SDS011;67412;49.892;14.490;2023-04-30T11:56:44;8.43;;;3.97;;
78169;SDS011;67412;49.892;14.490;2023-04-30T11:59:12;7.78;;;3.30;;
78169;SDS011;67412;49.892;14.490;2023-04-30T12:01:38;7.32;;;2.63;;
78169;SDS011;67412;49.892;14.490;2023-04-30T12:04:04;9.23;;;2.70;;
78169;SDS011;67412;49.892;14.490;2023-04-30T12:06:30;8.23;;;3.03;;
78169;SDS011;67412;49.892;14.490;2023-04-30T12:08:57;7.97;;;3.20;;
78169;SDS011;67412;49.892;14.490;2023-04-30T12:11:29;8.38;;;3.75;;
78169;SDS011;67412;49.892;14.490;2023-04-30T12:18:52;9.18;;;3.78;;
78169;SDS011;67412;49.892;14.490;2023-04-30T12:21:17;11.20;;;4.45;;
78169;SDS011;67412;49.892;14.490;2023-04-30T12:23:43;9.48;;;3.58;;
78169;SDS011;67412;49.892;14.490;2023-04-30T12:26:11;9.10;;;4.10;;
78169;SDS011;67412;49.892;14.490;2023-04-30T12:28:37;9.40;;;4.18;;
78169;SDS011;67412;49.892;14.490;2023-04-30T12:31:02;10.65;;;3.97;;
78169;SDS011;67412;49.892;14.490;2023-04-30T12:33:30;11.48;;;4.90;;
78169;SDS011;67412;49.892;14.490;2023-04-30T12:35:56;10.85;;;4.10;;
78169;SDS011;67412;49.892;14.490;2023-04-30T12:38:23;8.95;;;3.60;;
78169;SDS011;67412;49.892;14.490;2023-04-30T12:40:48;9.40;;;3.85;;
78169;SDS011;67412;49.892;14.490;2023-04-30T12:43:14;9.45;;;4.00;;
78169;SDS011;67412;49.892;14.490;2023-04-30T12:45:47;10.18;;;4.30;;
78169;SDS011;67412;49.892;14.490;2023-04-30T12:48:18;9.80;;;4.18;;
78169;SDS011;67412;49.892;14.490;2023-04-30T12:50:52;9.30;;;3.85;;
78169;SDS011;67412;49.892;14.490;2023-04-30T12:53:18;7.85;;;3.65;;
78169;SDS011;67412;49.892;14.490;2023-04-30T12:56:02;10.30;;;4.28;;
78169;SDS011;67412;49.892;14.490;2023-04-30T12:58:42;10.75;;;4.57;;
78169;SDS011;67412;49.892;14.490;2023-04-30T13:01:13;9.73;;;4.13;;
78169;SDS011;67412;49.892;14.490;2023-04-30T13:03:40;12.45;;;3.90;;
78169;SDS011;67412;49.892;14.490;2023-04-30T13:06:05;12.65;;;4.55;;
78169;SDS011;67412;49.892;14.490;2023-04-30T13:08:31;11.35;;;4.55;;
78169;SDS011;67412;49.892;14.490;2023-04-30T13:10:57;8.43;;;3.85;;
78169;SDS011;67412;49.892;14.490;2023-04-30T13:13:22;7.47;;;3.38;;
78169;SDS011;67412;49.892;14.490;2023-04-30T13:15:47;8.38;;;3.50;;
78169;SDS011;67412;49.892;14.490;2023-04-30T13:18:13;8.82;;;3.53;;
78169;SDS011;67412;49.892;14.490;2023-04-30T13:20:40;9.45;;;4.30;;
78169;SDS011;67412;49.892;14.490;2023-04-30T13:23:05;10.57;;;4.45;;
78169;SDS011;67412;49.892;14.490;2023-04-30T13:25:31;8.65;;;4.28;;
78169;SDS011;67412;49.892;14.490;2023-04-30T13:30:23;10.85;;;5.15;;
78169;SDS011;67412;49.892;14.490;2023-04-30T13:32:48;10.82;;;4.80;;
78169;SDS011;67412;49.892;14.490;2023-04-30T13:35:14;17.10;;;7.45;;
78169;SDS011;67412;49.892;14.490;2023-04-30T13:37:40;10.98;;;4.95;;
78169;SDS011;67412;49.892;14.490;2023-04-30T13:40:06;11.15;;;3.70;;
78169;SDS011;67412;49.892;14.490;2023-04-30T13:42:37;9.43;;;4.32;;
78169;SDS011;67412;49.892;14.490;2023-04-30T13:45:04;12.45;;;4.07;;
78169;SDS011;67412;49.892;14.490;2023-04-30T13:47:30;10.65;;;4.13;;
78169;SDS011;67412;49.892;14.490;2023-04-30T13:49:56;9.10;;;3.75;;
78169;SDS011;67412;49.892;14.490;2023-04-30T13:52:22;6.82;;;3.35;;
78169;SDS011;67412;49.892;14.490;2023-04-30T13:54:47;9.75;;;4.00;;
78169;SDS011;67412;49.892;14.490;2023-04-30T13:57:12;8.77;;;3.70;;
78169;SDS011;67412;49.892;14.490;2023-04-30T13:59:38;10.32;;;3.90;;
78169;SDS011;67412;49.892;14.490;2023-04-30T14:02:03;10.30;;;3.85;;
78169;SDS011;67412;49.892;14.490;2023-04-30T14:04:29;10.98;;;4.38;;
78169;SDS011;67412;49.892;14.490;2023-04-30T14:06:55;10.43;;;3.58;;
78169;SDS011;67412;49.892;14.490;2023-04-30T14:09:21;11.43;;;3.80;;
78169;SDS011;67412;49.892;14.490;2023-04-30T14:11:47;11.82;;;5.20;;
78169;SDS011;67412;49.892;14.490;2023-04-30T14:14:12;8.82;;;3.10;;
78169;SDS011;67412;49.892;14.490;2023-04-30T14:16:38;6.60;;;2.63;;
78169;SDS011;67412;49.892;14.490;2023-04-30T14:19:03;8.75;;;3.58;;
78169;SDS011;67412;49.892;14.490;2023-04-30T14:21:29;7.72;;;2.55;;
78169;SDS011;67412;49.892;14.490;2023-04-30T14:23:54;7.47;;;2.97;;
78169;SDS011;67412;49.892;14.490;2023-04-30T14:26:20;6.53;;;2.80;;
78169;SDS011;67412;49.892;14.490;2023-04-30T14:28:48;6.25;;;2.92;;
78169;SDS011;67412;49.892;14.490;2023-04-30T14:31:14;8.43;;;3.13;;
78169;SDS011;67412;49.892;14.490;2023-04-30T14:33:39;6.15;;;2.50;;
78169;SDS011;67412;49.892;14.490;2023-04-30T14:36:04;7.47;;;3.10;;
78169;SDS011;67412;49.892;14.490;2023-04-30T14:38:30;9.13;;;3.22;;
78169;SDS011;67412;49.892;14.490;2023-04-30T14:40:56;7.43;;;3.28;;
78169;SDS011;67412;49.892;14.490;2023-04-30T14:43:21;9.20;;;3.33;;
78169;SDS011;67412;49.892;14.490;2023-04-30T14:45:47;8.93;;;3.13;;
78169;SDS011;67412;49.892;14.490;2023-04-30T14:48:13;6.50;;;2.78;;
78169;SDS011;67412;49.892;14.490;2023-04-30T14:50:38;8.68;;;3.00;;
78169;SDS011;67412;49.892;14.490;2023-04-30T14:53:03;6.40;;;2.53;;
78169;SDS011;67412;49.892;14.490;2023-04-30T14:55:29;5.65;;;2.45;;
78169;SDS011;67412;49.892;14.490;2023-04-30T14:57:55;4.78;;;2.30;;
78169;SDS011;67412;49.892;14.490;2023-04-30T15:00:21;7.10;;;2.50;;
78169;SDS011;67412;49.892;14.490;2023-04-30T15:02:46;6.97;;;2.50;;
78169;SDS011;67412;49.892;14.490;2023-04-30T15:05:11;6.25;;;2.60;;